Time;durP1;ratioP1;P1;durP2;ratioP2;P2;SDS_P1;SDS_P2;PMS_P1;PMS_P2;Temp;Humidity;BMP_temperature;BMP_pressure;BME280_temperature;BME280_humidity;BME280_pressure;Samples;Min_cycle;Max_cycle;Signal;HPM_P1;HPM_P2
2023/08/27 00:00:41;;;;;;;5.03;3.70;;;;;;;12.80;100.00;101679.31;4990197;28;20184;-75
2023/08/27 00:03:07;;;;;;;4.67;3.43;;;;;;;14.43;100.00;101902.06;4987038;28;20186;-75
2023/08/27 00:05:32;;;;;;;7.03;3.43;;;;;;;11.95;100.00;101527.63;4987312;28;20245;-75
2023/08/27 00:07:58;;;;;;;5.90;3.90;;;;;;;12.43;100.00;101640.88;4989369;28;20610;-74
2023/08/27 00:10:24;;;;;;;3.83;3.27;;;;;;;13.80;100.00;101844.59;4992217;28;20268;-76
2023/08/27 00:12:49;;;;;;;7.13;3.80;;;;;;;12.30;100.00;101631.84;4991225;28;20200;-75
2023/08/27 00:15:14;;;;;;;4.33;3.70;;;;;;;12.30;100.00;101630.00;4995543;28;20736;-74
2023/08/27 00:17:41;;;;;;;6.63;4.03;;;;;;;11.96;100.00;101609.94;4991925;28;20603;-75
2023/08/27 00:20:09;;;;;;;6.23;4.30;;;;;;;12.27;100.00;101651.91;4991264;28;20193;-75
2023/08/27 00:22:36;;;;;;;4.83;3.87;;;;;;;11.09;100.00;101449.53;5002289;28;20471;-75
2023/08/27 00:25:01;;;;;;;4.80;3.43;;;;;;;12.06;100.00;101609.63;4994931;28;20534;-75
2023/08/27 00:27:27;;;;;;;4.50;3.90;;;;;;;11.43;100.00;101544.78;4993647;28;20444;-75
2023/08/27 00:29:52;;;;;;;6.40;4.37;;;;;;;10.91;100.00;101424.94;4993058;28;20669;-75
2023/08/27 00:32:18;;;;;;;4.83;3.87;;;;;;;10.86;100.00;101421.97;4992659;28;20186;-76
2023/08/27 00:34:43;;;;;;;4.70;3.50;;;;;;;11.95;100.00;101640.56;4990930;28;20212;-75
2023/08/27 00:37:09;;;;;;;4.83;3.43;;;;;;;11.92;100.00;101624.81;4992033;28;20194;-75
2023/08/27 00:39:36;;;;;;;6.90;5.00;;;;;;;11.11;100.00;101491.47;5001404;28;20209;-75
2023/08/27 00:42:04;;;;;;;5.67;3.97;;;;;;;12.20;100.00;101697.53;5005571;28;20193;-76
2023/08/27 00:44:30;;;;;;;9.07;4.00;;;;;;;11.26;100.00;101570.19;5005669;28;20431;-75
2023/08/27 00:46:55;;;;;;;7.50;3.97;;;;;;;11.22;100.00;101534.78;4991042;28;20437;-76
2023/08/27 00:49:21;;;;;;;4.83;3.93;;;;;;;10.83;100.00;101505.53;4993271;28;20443;-76
2023/08/27 00:51:47;;;;;;;6.93;4.40;;;;;;;13.51;100.00;101951.53;4992043;28;20181;-75
2023/08/27 00:54:13;;;;;;;5.20;4.50;;;;;;;11.79;100.00;101661.41;4992424;28;20209;-76
2023/08/27 00:56:42;;;;;;;6.30;4.27;;;;;;;12.64;100.00;101782.72;4991362;28;20603;-75
2023/08/27 00:59:07;;;;;;;5.90;4.23;;;;;;;12.11;100.00;101744.38;4991981;28;20432;-76
2023/08/27 01:01:33;;;;;;;4.93;4.43;;;;;;;11.68;100.00;101668.91;4991347;28;20624;-76
2023/08/27 01:04:00;;;;;;;6.00;4.60;;;;;;;11.13;100.00;101575.34;4999579;28;20555;-75
2023/08/27 01:06:25;;;;;;;4.63;4.10;;;;;;;11.88;100.00;101701.47;4992238;28;20472;-75
2023/08/27 01:09:16;;;;;;;6.20;4.43;;;;;;;13.90;100.00;102049.22;4991397;28;20457;-75
2023/08/27 01:11:51;;;;;;;6.00;3.90;;;;;;;11.09;100.00;101567.66;4993532;28;20211;-76
2023/08/27 01:14:19;;;;;;;5.73;4.70;;;;;;;11.30;100.00;101614.44;4996130;28;20476;-75
2023/08/27 01:16:48;;;;;;;5.70;4.77;;;;;;;12.62;100.00;101817.03;4989918;28;20539;-75
2023/08/27 01:19:15;;;;;;;5.43;4.50;;;;;;;12.61;100.00;101862.97;4991215;28;20445;-76
2023/08/27 01:21:44;;;;;;;6.10;4.70;;;;;;;13.73;100.00;102014.38;4991956;28;20449;-76
2023/08/27 01:24:10;;;;;;;5.50;4.00;;;;;;;11.98;100.00;101780.00;4990127;28;20968;-76
2023/08/27 01:26:46;;;;;;;7.10;4.70;;;;;;;11.82;100.00;101745.19;4988265;28;20457;-75
2023/08/27 01:29:30;;;;;;;7.33;5.60;;;;;;;13.76;100.00;102024.78;4990677;28;20466;-76
2023/08/27 01:32:05;;;;;;;5.60;4.80;;;;;;;13.85;100.00;102024.66;4990173;28;20467;-76
2023/08/27 01:34:32;;;;;;;5.70;4.70;;;;;;;10.39;100.00;101474.13;4992616;28;20475;-76
2023/08/27 01:36:58;;;;;;;7.17;4.70;;;;;;;11.12;100.00;101560.25;4988411;28;20452;-75
2023/08/27 01:39:24;;;;;;;7.00;5.10;;;;;;;12.06;100.00;101705.63;4989984;28;20463;-74
2023/08/27 01:41:51;;;;;;;7.27;5.40;;;;;;;12.14;100.00;101756.63;4997506;28;20445;-75
2023/08/27 01:44:17;;;;;;;8.70;5.23;;;;;;;11.22;100.00;101619.88;4989725;28;20467;-75
2023/08/27 01:46:43;;;;;;;6.00;4.57;;;;;;;11.81;100.00;101746.22;4991207;28;20460;-75
2023/08/27 01:49:08;;;;;;;5.70;3.93;;;;;;;11.43;100.00;101598.50;4987555;28;20542;-75
2023/08/27 01:51:34;;;;;;;6.33;4.23;;;;;;;13.76;100.00;101978.09;4989505;28;20638;-76
2023/08/27 01:54:00;;;;;;;9.10;5.20;;;;;;;12.85;100.00;101859.16;4988936;28;20213;-75
2023/08/27 01:56:25;;;;;;;8.80;5.90;;;;;;;10.50;100.00;101468.31;4990808;28;20622;-75
2023/08/27 01:58:51;;;;;;;6.80;4.77;;;;;;;11.65;100.00;101649.63;4985580;28;20190;-75
2023/08/27 02:01:17;;;;;;;5.50;4.33;;;;;;;12.43;100.00;101750.34;4998425;28;20201;-76
2023/08/27 02:03:43;;;;;;;4.90;3.90;;;;;;;12.16;100.00;101682.78;4991541;28;20236;-75
2023/08/27 02:06:08;;;;;;;7.20;4.53;;;;;;;12.29;100.00;101674.03;4988597;28;20484;-75
2023/08/27 02:08:34;;;;;;;4.87;3.80;;;;;;;12.23;100.00;101631.75;4990803;28;20328;-75
2023/08/27 02:11:00;;;;;;;5.27;3.37;;;;;;;11.44;100.00;101499.94;4991922;28;20189;-75
2023/08/27 02:13:25;;;;;;;7.40;3.43;;;;;;;13.00;100.00;101722.59;4993009;28;20216;-76
2023/08/27 02:15:50;;;;;;;5.03;3.50;;;;;;;11.73;100.00;101513.31;4990307;28;20467;-75
2023/08/27 02:18:16;;;;;;;6.80;4.17;;;;;;;12.81;100.00;101710.59;4991534;28;20255;-76
2023/08/27 02:20:43;;;;;;;6.93;4.13;;;;;;;11.25;100.00;101504.91;4990774;28;20722;-75
2023/08/27 02:23:09;;;;;;;4.47;3.73;;;;;;;11.16;100.00;101435.34;4990368;28;20236;-75
2023/08/27 02:25:34;;;;;;;6.20;3.80;;;;;;;13.85;100.00;101855.59;4990711;28;20456;-75
2023/08/27 02:28:00;;;;;;;6.03;3.40;;;;;;;12.39;100.00;101579.59;4989041;28;20198;-75
2023/08/27 02:30:25;;;;;;;4.43;3.63;;;;;;;12.03;100.00;101612.72;4990572;28;20824;-75
2023/08/27 02:32:51;;;;;;;6.00;3.80;;;;;;;10.91;100.00;101376.63;4991430;28;20292;-75
2023/08/27 02:35:16;;;;;;;6.60;3.87;;;;;;;12.18;100.00;101601.94;4988279;28;20209;-75
2023/08/27 02:37:42;;;;;;;6.07;4.30;;;;;;;11.56;100.00;101535.22;4991372;28;20198;-75
2023/08/27 02:40:08;;;;;;;5.70;4.43;;;;;;;11.64;100.00;101530.56;4989399;28;20197;-75
2023/08/27 02:42:33;;;;;;;5.60;3.77;;;;;;;10.81;100.00;101347.38;5007719;28;20797;-75
2023/08/27 02:44:59;;;;;;;4.83;3.70;;;;;;;11.67;100.00;101558.91;4987502;28;20452;-75
2023/08/27 02:47:24;;;;;;;5.40;3.73;;;;;;;11.63;100.00;101503.88;5001300;28;20196;-75
2023/08/27 02:49:50;;;;;;;4.90;4.07;;;;;;;10.41;100.00;101284.34;4991338;28;20205;-75
2023/08/27 02:52:16;;;;;;;5.10;3.90;;;;;;;10.60;100.00;101301.72;4990196;28;20673;-75
2023/08/27 02:54:41;;;;;;;10.03;3.97;;;;;;;11.73;100.00;101488.28;4991319;28;20289;-75
2023/08/27 02:57:07;;;;;;;5.00;3.50;;;;;;;11.39;100.00;101475.50;4991471;28;20448;-75
2023/08/27 02:59:32;;;;;;;4.30;3.63;;;;;;;10.33;100.00;101287.16;4990047;28;20266;-75
2023/08/27 03:01:58;;;;;;;7.17;4.23;;;;;;;11.40;100.00;101510.25;4991198;28;20255;-75
2023/08/27 03:04:23;;;;;;;5.17;3.27;;;;;;;10.04;100.00;101258.47;4990963;28;20200;-76
2023/08/27 03:06:49;;;;;;;5.50;3.67;;;;;;;11.98;100.00;101607.91;4992317;28;20740;-75
2023/08/27 03:09:15;;;;;;;3.80;3.30;;;;;;;10.66;100.00;101310.88;5003035;28;20637;-75
2023/08/27 03:11:40;;;;;;;4.30;3.50;;;;;;;11.45;100.00;101478.25;4989332;28;20200;-75
2023/08/27 03:14:07;;;;;;;4.70;3.40;;;;;;;13.10;100.00;101701.56;4990249;28;20847;-75
2023/08/27 03:16:32;;;;;;;5.57;3.80;;;;;;;11.71;100.00;101542.22;5000637;28;20284;-75
2023/08/27 03:18:58;;;;;;;4.93;3.83;;;;;;;11.08;100.00;101458.63;4993431;28;20444;-75
2023/08/27 03:21:24;;;;;;;4.30;3.27;;;;;;;10.95;100.00;101361.81;4991852;28;20194;-75
2023/08/27 03:23:50;;;;;;;4.37;3.43;;;;;;;11.09;100.00;101371.69;4991585;28;20421;-75
2023/08/27 03:26:15;;;;;;;4.40;3.20;;;;;;;11.16;100.00;101397.75;4989477;28;20574;-75
2023/08/27 03:28:41;;;;;;;6.30;4.10;;;;;;;11.35;100.00;101421.34;4993913;28;20190;-75
2023/08/27 03:31:07;;;;;;;5.13;4.03;;;;;;;11.00;100.00;101348.66;4990372;28;20217;-75
2023/08/27 03:33:33;;;;;;;6.33;3.50;;;;;;;11.80;100.00;101512.53;5003965;28;20221;-76
2023/08/27 03:36:00;;;;;;;5.60;3.60;;;;;;;13.49;100.00;101734.44;4991814;28;20456;-75
2023/08/27 03:38:25;;;;;;;5.60;3.23;;;;;;;11.01;100.00;101319.94;4992349;28;20193;-76
2023/08/27 03:40:52;;;;;;;5.87;3.90;;;;;;;11.39;100.00;101449.47;4989325;28;20429;-75
2023/08/27 03:43:17;;;;;;;6.60;4.10;;;;;;;11.90;100.00;101530.06;4993360;28;20197;-75
2023/08/27 03:45:43;;;;;;;5.80;4.07;;;;;;;12.87;100.00;101682.94;4992678;28;20452;-75
2023/08/27 03:48:09;;;;;;;5.30;3.90;;;;;;;12.17;100.00;101590.31;4992424;28;20189;-76
2023/08/27 03:50:36;;;;;;;7.87;3.70;;;;;;;10.25;100.00;101269.28;4994136;28;20692;-75
2023/08/27 03:53:02;;;;;;;5.27;3.73;;;;;;;13.20;100.00;101778.53;4995497;28;20209;-76
2023/08/27 03:55:28;;;;;;;4.60;3.80;;;;;;;10.03;100.00;101241.56;4993297;28;21186;-76
2023/08/27 03:57:54;;;;;;;5.67;3.30;;;;;;;11.24;100.00;101505.91;4995112;28;20729;-75
2023/08/27 04:00:19;;;;;;;5.17;3.50;;;;;;;11.06;100.00;101463.34;4991072;28;21183;-75
2023/08/27 04:02:45;;;;;;;6.00;3.60;;;;;;;12.18;100.00;101645.78;4992925;28;20650;-75
2023/08/27 04:05:11;;;;;;;5.33;4.17;;;;;;;13.10;100.00;101785.06;4994302;28;20221;-75
2023/08/27 04:07:36;;;;;;;5.70;4.03;;;;;;;11.75;100.00;101591.06;4995533;28;20244;-75
2023/08/27 04:10:04;;;;;;;4.67;3.63;;;;;;;11.23;100.00;101514.97;4991749;28;20941;-75
2023/08/27 04:12:30;;;;;;;4.77;3.53;;;;;;;11.53;100.00;101553.38;5004170;28;20272;-75
2023/08/27 04:14:57;;;;;;;5.60;3.93;;;;;;;10.74;100.00;101391.28;4991747;28;20597;-75
2023/08/27 04:17:22;;;;;;;5.97;3.40;;;;;;;10.95;100.00;101463.78;4991747;28;20447;-76
2023/08/27 04:19:48;;;;;;;4.43;3.37;;;;;;;11.29;100.00;101478.50;5001898;28;20478;-75
2023/08/27 04:22:13;;;;;;;4.57;3.50;;;;;;;11.62;100.00;101486.94;4994406;28;20189;-76
2023/08/27 04:24:38;;;;;;;5.00;3.70;;;;;;;11.53;100.00;101477.31;4993059;28;20244;-76
2023/08/27 04:27:04;;;;;;;5.30;3.40;;;;;;;11.20;100.00;101388.31;4994001;28;20217;-75
2023/08/27 04:29:29;;;;;;;7.40;3.57;;;;;;;11.35;100.00;101423.19;4994607;28;20653;-75
2023/08/27 04:31:55;;;;;;;4.40;3.40;;;;;;;10.99;100.00;101322.84;4991572;28;20703;-75
2023/08/27 04:34:20;;;;;;;5.27;3.30;;;;;;;11.44;100.00;101451.59;4996056;28;20213;-75
2023/08/27 04:36:46;;;;;;;4.10;3.30;;;;;;;11.46;100.00;101471.88;4997494;28;20669;-76
2023/08/27 04:39:13;;;;;;;4.47;3.10;;;;;;;10.72;100.00;101291.34;4992901;28;20198;-75
2023/08/27 04:41:39;;;;;;;5.50;3.70;;;;;;;10.56;100.00;101338.84;4992692;28;20558;-75
2023/08/27 04:44:05;;;;;;;3.90;2.80;;;;;;;11.49;100.00;101430.38;4994309;28;20941;-76
2023/08/27 04:46:31;;;;;;;4.27;3.13;;;;;;;10.57;100.00;101270.75;4994026;28;20476;-76
2023/08/27 04:48:56;;;;;;;4.60;3.00;;;;;;;12.62;100.00;101603.59;4994079;28;21415;-76
2023/08/27 04:51:23;;;;;;;4.93;3.47;;;;;;;11.57;100.00;101416.81;4991412;28;20237;-75
2023/08/27 04:53:49;;;;;;;3.90;3.13;;;;;;;12.32;100.00;101520.31;4995306;28;20218;-75
2023/08/27 04:56:14;;;;;;;4.37;3.30;;;;;;;10.81;100.00;101258.84;5003925;28;20471;-75
2023/08/27 04:58:40;;;;;;;4.50;2.90;;;;;;;11.43;100.00;101383.63;4990197;28;20220;-75
2023/08/27 05:01:05;;;;;;;4.40;3.17;;;;;;;12.50;100.00;101498.34;4991325;28;20182;-75
2023/08/27 05:03:31;;;;;;;4.20;3.10;;;;;;;11.63;100.00;101358.78;4996270;28;20209;-76
2023/08/27 05:05:56;;;;;;;5.60;3.23;;;;;;;13.42;100.00;101612.28;5000339;28;20866;-75
2023/08/27 05:08:22;;;;;;;4.50;3.00;;;;;;;11.68;100.00;101373.28;4987256;28;20224;-75
2023/08/27 05:10:47;;;;;;;4.30;2.80;;;;;;;13.37;100.00;101625.53;4983482;23;20238;-81
2023/08/27 05:13:13;;;;;;;4.70;3.23;;;;;;;11.89;100.00;101433.47;4969222;28;20256;-81
2023/08/27 05:15:39;;;;;;;4.07;3.00;;;;;;;13.70;100.00;101664.25;4967981;28;20719;-80
2023/08/27 05:18:05;;;;;;;3.90;2.53;;;;;;;12.24;100.00;101460.44;4969422;28;20213;-80
2023/08/27 05:20:31;;;;;;;4.03;2.87;;;;;;;13.23;100.00;101606.53;4970619;28;20519;-80
2023/08/27 05:22:56;;;;;;;4.60;3.17;;;;;;;11.40;100.00;101340.16;4976748;28;20445;-80
2023/08/27 05:25:22;;;;;;;4.80;3.50;;;;;;;12.00;100.00;101462.53;4968754;28;20567;-80
2023/08/27 05:27:47;;;;;;;6.70;3.47;;;;;;;13.63;100.00;101684.97;4971166;28;20566;-80
2023/08/27 05:30:14;;;;;;;5.47;3.87;;;;;;;12.23;100.00;101493.75;4966292;28;20210;-80
2023/08/27 05:32:40;;;;;;;4.30;3.23;;;;;;;11.87;100.00;101452.50;4969899;28;20241;-80
2023/08/27 05:35:06;;;;;;;5.40;3.53;;;;;;;11.62;100.00;101402.81;4970744;28;20969;-81
2023/08/27 05:37:32;;;;;;;7.37;3.77;;;;;;;11.74;100.00;101412.00;4971918;28;20436;-79
2023/08/27 05:39:57;;;;;;;4.80;3.10;;;;;;;11.37;100.00;101370.94;4956403;28;20678;-79
2023/08/27 05:42:23;;;;;;;4.00;3.40;;;;;;;11.42;100.00;101386.47;4956761;28;20622;-79
2023/08/27 05:44:48;;;;;;;9.07;3.57;;;;;;;12.05;100.00;101491.53;4971847;28;20194;-80
2023/08/27 05:47:15;;;;;;;5.77;3.33;;;;;;;11.06;100.00;101275.41;4971997;28;20187;-81
2023/08/27 05:49:43;;;;;;;5.30;3.47;;;;;;;11.92;100.00;101450.06;4971617;28;20379;-81
2023/08/27 05:52:09;;;;;;;5.23;3.50;;;;;;;12.38;100.00;101489.97;4969469;28;20433;-80
2023/08/27 05:54:34;;;;;;;4.83;3.50;;;;;;;12.55;100.00;101551.56;4972560;28;20470;-79
2023/08/27 05:57:00;;;;;;;5.00;3.47;;;;;;;12.04;100.00;101449.56;4972596;28;20233;-78
2023/08/27 05:59:25;;;;;;;5.20;3.43;;;;;;;13.14;100.00;101575.41;4974334;28;20292;-78
2023/08/27 06:01:51;;;;;;;6.87;3.60;;;;;;;12.39;100.00;101469.28;4972385;28;20221;-80
2023/08/27 06:04:16;;;;;;;5.77;3.90;;;;;;;12.64;100.00;101493.88;4973203;28;20185;-80
2023/08/27 06:06:42;;;;;;;5.60;3.80;;;;;;;12.28;100.00;101416.84;4971533;28;20216;-78
2023/08/27 06:09:07;;;;;;;4.00;3.17;;;;;;;12.15;100.00;101325.28;4972083;28;20198;-78
2023/08/27 06:11:33;;;;;;;4.80;3.07;;;;;;;12.86;100.00;101440.81;4970636;28;20827;-78
2023/08/27 06:13:58;;;;;;;4.43;3.40;;;;;;;12.39;100.00;101349.03;4958518;28;20221;-78
2023/08/27 06:16:24;;;;;;;4.10;2.80;;;;;;;12.91;100.00;101456.38;4955897;28;20197;-79
2023/08/27 06:18:50;;;;;;;9.17;4.20;;;;;;;12.93;100.00;101476.69;4959261;28;20190;-79
2023/08/27 06:21:17;;;;;;;4.37;2.93;;;;;;;12.96;100.00;101435.91;4973922;28;20301;-78
2023/08/27 06:23:43;;;;;;;4.00;2.77;;;;;;;14.25;100.00;101623.81;4968808;28;20543;-78
2023/08/27 06:26:08;;;;;;;5.30;3.63;;;;;;;12.16;100.00;101322.41;4972694;28;20444;-78
2023/08/27 06:28:34;;;;;;;9.87;3.33;;;;;;;11.66;100.00;101241.00;4971484;28;20446;-79
2023/08/27 06:31:00;;;;;;;6.63;3.50;;;;;;;12.26;100.00;101314.00;4971660;28;20206;-78
2023/08/27 06:33:26;;;;;;;4.10;3.50;;;;;;;14.74;100.00;101651.53;4975372;28;20241;-79
2023/08/27 06:35:52;;;;;;;4.97;2.93;;;;;;;13.79;100.00;101487.81;4967778;28;20194;-78
2023/08/27 06:38:17;;;;;;;4.77;4.10;;;;;;;13.81;100.00;101505.66;4956365;28;20434;-78
2023/08/27 06:40:43;;;;;;;5.00;3.70;;;;;;;13.68;100.00;101439.91;4960523;28;20446;-78
2023/08/27 06:43:09;;;;;;;5.80;3.87;;;;;;;14.78;100.00;101605.03;4973341;28;20241;-79
2023/08/27 06:45:35;;;;;;;5.80;3.30;;;;;;;12.87;100.00;101275.53;4974977;28;20343;-79
2023/08/27 06:48:01;;;;;;;4.73;3.70;;;;;;;12.75;100.00;101234.91;4958279;28;20508;-78
2023/08/27 06:50:26;;;;;;;6.93;3.63;;;;;;;13.05;100.00;101353.06;4973050;28;20725;-78
2023/08/27 06:52:52;;;;;;;6.10;4.50;;;;;;;13.38;100.00;101406.22;4972901;28;20189;-78
2023/08/27 06:55:17;;;;;;;5.40;4.20;;;;;;;13.50;100.00;101426.16;4970831;28;20189;-77
2023/08/27 06:57:43;;;;;;;5.00;3.50;;;;;;;13.37;100.00;101358.78;4972534;28;20178;-77
2023/08/27 07:00:10;;;;;;;4.87;3.90;;;;;;;12.65;100.00;101264.91;4971392;28;20214;-77
2023/08/27 07:02:35;;;;;;;5.87;3.97;;;;;;;13.74;100.00;101411.25;4956607;28;20245;-78
2023/08/27 07:05:01;;;;;;;6.30;4.10;;;;;;;13.49;100.00;101390.28;4970859;28;20872;-77
2023/08/27 07:07:27;;;;;;;5.30;3.63;;;;;;;13.33;100.00;101342.16;4972960;28;20185;-77
2023/08/27 07:09:52;;;;;;;4.87;3.50;;;;;;;13.45;100.00;101363.94;4972018;28;20264;-78
2023/08/27 07:12:20;;;;;;;5.77;4.07;;;;;;;13.44;100.00;101375.78;4968101;28;20197;-77
2023/08/27 07:14:46;;;;;;;4.90;3.80;;;;;;;12.94;100.00;101257.53;4971520;28;20628;-78
2023/08/27 07:17:14;;;;;;;8.87;4.70;;;;;;;14.22;100.00;101506.31;4974724;28;20434;-79
2023/08/27 07:19:40;;;;;;;6.60;4.03;;;;;;;14.99;100.00;101625.59;4960072;28;20225;-79
2023/08/27 07:22:06;;;;;;;6.50;4.20;;;;;;;12.86;100.00;101253.16;4974820;28;20942;-79
2023/08/27 07:24:31;;;;;;;8.53;4.40;;;;;;;13.34;100.00;101346.53;4979646;28;20186;-78
2023/08/27 07:26:57;;;;;;;7.63;4.50;;;;;;;13.28;100.00;101307.78;4977160;28;20327;-78
2023/08/27 07:29:23;;;;;;;5.13;3.63;;;;;;;13.18;100.00;101261.50;4962252;28;20277;-79
2023/08/27 07:31:48;;;;;;;8.03;4.67;;;;;;;13.37;100.00;101296.81;4963398;28;20429;-79
2023/08/27 07:34:14;;;;;;;4.73;3.40;;;;;;;13.50;100.00;101321.06;4980731;28;20212;-79
2023/08/27 07:36:39;;;;;;;5.50;3.50;;;;;;;13.42;100.00;101327.47;4976503;28;20193;-79
2023/08/27 07:39:04;;;;;;;4.87;2.97;;;;;;;13.10;100.00;101267.09;4975521;28;20215;-78
2023/08/27 07:41:30;;;;;;;5.67;3.60;;;;;;;13.78;100.00;101390.94;4960522;28;20252;-78
2023/08/27 07:43:55;;;;;;;5.40;3.40;;;;;;;12.17;100.00;101178.03;4971810;28;20174;-79
2023/08/27 07:46:21;;;;;;;5.20;2.90;;;;;;;13.16;100.00;101347.06;4975494;28;20218;-78
2023/08/27 07:48:46;;;;;;;5.20;3.13;;;;;;;12.97;100.00;101339.78;4974704;28;20370;-80
2023/08/27 07:51:12;;;;;;;5.47;3.50;;;;;;;13.23;100.00;101384.81;4972535;28;20260;-79
2023/08/27 07:53:37;;;;;;;5.87;3.10;;;;;;;12.51;100.00;101287.44;4959319;28;20233;-81
2023/08/27 07:56:03;;;;;;;4.13;2.63;;;;;;;12.69;100.00;101278.78;4974608;28;20193;-79
2023/08/27 07:58:30;;;;;;;5.27;2.93;;;;;;;12.66;100.00;101292.66;4979312;28;20186;-80
2023/08/27 08:01:02;;;;;;;4.37;2.57;;;;;;;11.80;100.00;101180.09;4971740;28;20726;-79
2023/08/27 08:03:28;;;;;;;4.70;2.70;;;;;;;14.48;100.00;101609.94;4958477;28;20471;-79
2023/08/27 08:05:53;;;;;;;5.70;2.57;;;;;;;12.78;100.00;101397.88;4977074;28;20489;-80
2023/08/27 08:08:19;;;;;;;5.50;3.27;;;;;;;11.53;100.00;101146.88;4970409;28;20503;-79
2023/08/27 08:10:44;;;;;;;6.83;3.37;;;;;;;12.01;100.00;101261.75;4976981;28;20214;-79
2023/08/27 08:13:11;;;;;;;4.83;2.90;;;;;;;12.71;100.00;101321.66;4958734;28;20645;-79
2023/08/27 08:15:37;;;;;;;5.30;2.90;;;;;;;12.08;100.00;101227.63;4958388;28;20190;-79
2023/08/27 08:18:02;;;;;;;7.23;2.90;;;;;;;12.86;100.00;101347.41;4978749;28;20452;-79
2023/08/27 08:20:28;;;;;;;5.40;3.03;;;;;;;12.93;100.00;101381.59;4960947;28;20264;-79
2023/08/27 08:22:53;;;;;;;5.77;3.00;;;;;;;12.84;100.00;101376.41;4975504;28;20178;-77
2023/08/27 08:25:21;;;;;;;5.60;3.00;;;;;;;13.54;100.00;101457.06;4975997;28;20190;-78
2023/08/27 08:27:47;;;;;;;3.90;2.77;;;;;;;12.36;100.00;101267.91;4976224;28;20185;-79
2023/08/27 08:30:12;;;;;;;4.00;2.30;;;;;;;12.48;100.00;101239.41;4975989;28;20457;-79
2023/08/27 08:32:38;;;;;;;5.83;2.27;;;;;;;12.40;100.00;101216.19;4979248;28;20762;-78
2023/08/27 08:35:04;;;;;;;4.93;2.03;;;;;;;13.33;100.00;101404.97;4973071;28;20206;-79
2023/08/27 08:37:29;;;;;;;4.20;1.77;;;;;;;13.84;100.00;101452.16;4976229;28;20186;-78
2023/08/27 08:39:55;;;;;;;4.33;1.63;;;;;;;13.56;100.00;101372.25;4973658;28;20839;-79
2023/08/27 08:42:43;;;;;;;3.30;1.30;;;;;;;15.21;100.00;101619.94;4980625;28;20588;-79
2023/08/27 08:45:56;;;;;;;4.10;2.37;;;;;;;14.81;100.00;101620.81;4977458;28;20559;-79
2023/08/27 08:48:25;;;;;;;4.70;1.50;;;;;;;12.84;100.00;101266.03;4897818;29;20449;-79
2023/08/27 08:50:53;;;;;;;4.60;1.50;;;;;;;12.82;100.00;101243.84;4950160;28;20499;-80
2023/08/27 08:53:23;;;;;;;4.13;1.30;;;;;;;14.24;100.00;101514.22;4968697;28;20463;-79
2023/08/27 08:55:56;;;;;;;3.77;1.23;;;;;;;12.38;100.00;101172.53;4975598;28;20434;-78
2023/08/27 08:58:26;;;;;;;3.00;1.47;;;;;;;15.02;100.00;101606.25;4982064;28;20557;-78
2023/08/27 09:00:51;;;;;;;4.27;1.93;;;;;;;13.69;100.00;101331.03;4973334;28;20480;-78
2023/08/27 09:03:19;;;;;;;4.00;1.50;;;;;;;13.91;100.00;101341.56;4976822;28;20938;-78
2023/08/27 09:05:46;;;;;;;2.87;1.40;;;;;;;13.74;100.00;101306.97;4957748;28;20209;-78
2023/08/27 09:08:13;;;;;;;4.80;1.40;;;;;;;12.96;100.00;101152.31;4976883;28;20437;-78
2023/08/27 09:10:39;;;;;;;4.70;1.47;;;;;;;14.00;100.00;101319.59;4978049;28;21269;-78
2023/08/27 09:13:05;;;;;;;5.47;1.30;;;;;;;13.39;100.00;101217.41;4975701;28;20532;-78
2023/08/27 09:15:30;;;;;;;3.23;1.20;;;;;;;13.23;100.00;101156.69;4977242;28;20681;-80
2023/08/27 09:17:56;;;;;;;2.77;1.13;;;;;;;13.25;100.00;101168.13;4976986;28;20484;-80
2023/08/27 09:20:21;;;;;;;4.20;1.03;;;;;;;14.71;100.00;101369.25;4973256;28;20210;-78
2023/08/27 09:22:47;;;;;;;2.70;1.10;;;;;;;14.10;100.00;101257.13;4968871;28;20227;-78
2023/08/27 09:25:13;;;;;;;2.13;0.70;;;;;;;13.47;100.00;101108.59;4974609;28;20193;-78
2023/08/27 09:27:39;;;;;;;2.30;1.10;;;;;;;13.98;100.00;101188.69;4971618;28;20198;-77
2023/08/27 09:30:05;;;;;;;2.30;0.70;;;;;;;14.11;100.00;101193.19;4967062;28;20574;-79
2023/08/27 09:32:32;;;;;;;2.03;0.70;;;;;;;14.54;100.00;101254.69;4977351;28;20425;-79
2023/08/27 09:35:03;;;;;;;2.37;0.77;;;;;;;15.97;100.00;101459.69;4973479;28;20573;-78
2023/08/27 09:37:36;;;;;;;1.83;0.70;;;;;;;13.70;100.00;101100.00;4955350;28;20469;-77
2023/08/27 09:40:06;;;;;;;2.20;0.80;;;;;;;14.34;100.00;101117.13;4972536;28;20465;-78
2023/08/27 09:42:32;;;;;;;1.93;0.60;;;;;;;14.19;100.00;101083.19;4977860;28;20443;-79
2023/08/27 09:44:58;;;;;;;2.00;0.70;;;;;;;14.24;100.00;101104.94;4974835;28;20495;-79
2023/08/27 09:47:30;;;;;;;2.90;0.90;;;;;;;14.70;100.00;101113.81;4956711;28;20963;-80
2023/08/27 09:49:55;;;;;;;2.07;0.70;;;;;;;14.37;100.00;101055.44;4973876;28;20473;-78
2023/08/27 09:52:25;;;;;;;2.97;1.03;;;;;;;15.57;100.00;101176.84;4958498;28;20496;-78
2023/08/27 09:54:52;;;;;;;3.60;1.10;;;;;;;14.21;100.00;100930.03;4973985;28;20210;-78
2023/08/27 09:57:20;;;;;;;2.40;1.10;;;;;;;14.74;100.00;101044.81;4976786;28;20425;-79
2023/08/27 09:59:46;;;;;;;2.50;1.00;;;;;;;14.22;100.00;100955.94;4973970;28;20450;-76
2023/08/27 10:02:13;;;;;;;2.00;0.83;;;;;;;15.21;100.00;101047.88;4958544;28;20437;-77
2023/08/27 10:04:49;;;;;;;2.30;1.00;;;;;;;16.39;100.00;101194.66;4973233;28;20520;-79
2023/08/27 10:07:16;;;;;;;2.00;0.80;;;;;;;16.58;100.00;101265.84;4973340;28;20425;-79
2023/08/27 10:09:41;;;;;;;3.00;1.00;;;;;;;16.42;100.00;101238.31;4972859;28;20948;-79
2023/08/27 10:12:11;;;;;;;2.20;0.90;;;;;;;16.29;100.00;101176.25;4972334;28;20430;-78
2023/08/27 10:14:40;;;;;;;4.30;1.13;;;;;;;16.67;100.00;101213.84;4959030;28;20214;-78
2023/08/27 10:17:06;;;;;;;2.13;0.83;;;;;;;16.34;100.00;101107.88;4972475;28;21386;-78
2023/08/27 10:19:34;;;;;;;2.37;0.90;;;;;;;16.68;100.00;101098.19;4967360;28;20446;-77
2023/08/27 10:22:00;;;;;;;2.80;1.03;;;;;;;16.56;100.00;101081.94;4955220;28;20197;-78
2023/08/27 10:24:26;;;;;;;2.43;0.90;;;;;;;17.40;100.00;101163.91;4980555;28;20421;-77
2023/08/27 10:26:53;;;;;;;3.20;0.90;;;;;;;17.14;100.00;101100.16;4974980;28;20717;-78
2023/08/27 10:29:22;;;;;;;3.40;1.60;;;;;;;17.12;100.00;101136.69;4969689;28;20439;-78
2023/08/27 10:31:47;;;;;;;2.20;0.93;;;;;;;17.34;100.00;101112.53;4974473;28;20945;-77
2023/08/27 10:34:13;;;;;;;2.73;0.90;;;;;;;17.16;100.00;101102.63;4976875;28;20472;-78
2023/08/27 10:36:41;;;;;;;4.27;1.47;;;;;;;17.06;100.00;101099.69;4958453;28;20197;-77
2023/08/27 10:39:08;;;;;;;3.00;1.03;;;;;;;17.04;100.00;101044.88;4973625;28;20856;-77
2023/08/27 10:41:34;;;;;;;2.63;1.07;;;;;;;17.09;100.00;101015.19;4974418;28;20456;-78
2023/08/27 10:44:01;;;;;;;2.50;0.97;;;;;;;17.52;100.00;101093.38;4967938;28;20430;-78
2023/08/27 10:46:26;;;;;;;4.50;1.20;;;;;;;17.22;100.00;101052.91;4959094;28;20448;-77
2023/08/27 10:48:53;;;;;;;2.97;1.30;;;;;;;17.46;100.00;101075.38;4955074;28;20434;-77
2023/08/27 10:51:21;;;;;;;2.40;1.10;;;;;;;17.38;100.00;101056.75;4968297;28;20208;-77
2023/08/27 10:53:49;;;;;;;3.30;1.20;;;;;;;17.42;100.00;101040.84;4970579;28;20476;-77
2023/08/27 10:56:29;;;;;;;2.87;1.10;;;;;;;17.67;100.00;101024.25;4969980;28;20449;-76
2023/08/27 10:59:02;;;;;;;2.47;1.10;;;;;;;17.46;100.00;100990.50;4971708;28;20904;-79
2023/08/27 11:01:28;;;;;;;2.70;1.10;;;;;;;17.50;100.00;100975.38;4971887;28;20454;-78
2023/08/27 11:04:01;;;;;;;2.60;1.10;;;;;;;17.86;100.00;100992.38;4970872;28;20422;-79
2023/08/27 11:06:36;;;;;;;3.77;1.17;;;;;;;18.21;100.00;100974.00;4967732;28;21006;-79
2023/08/27 11:09:17;;;;;;;3.53;1.33;;;;;;;17.13;100.00;100753.50;4974561;28;20440;-80
2023/08/27 11:11:47;;;;;;;3.40;1.00;;;;;;;18.51;100.00;100930.22;4972596;28;20445;-79
2023/08/27 11:14:14;;;;;;;3.43;1.13;;;;;;;18.78;100.00;100917.84;4974217;28;20470;-79